Portada
METAR-TAF:

METAR-TAF

Aeropuertos :

Sylacauga, Alabama, Estados Unidos

latitud: 33-10-19N, longitud: 086-18-20W, altitud: 173 m

Observación

El informe se hizo hace 11 minutos, a las 19:55 UTC
Viento 4 kt del oeste
Temperatura 12°C
Humedad 76%
Presión 1015 hPa
Visibilidad: 16.1 km
Nubes dispersas a una altura de 2600 ft
Cielo nuboso a una altura de 3000 ft
Cielo nuboso a una altura de 12000 ft

METAR: KSCD 271955Z AUTO 28004KT 10SM SCT026 BKN030 BKN120 12/08 A2996 RMK AO2 T01230080

Hora: 14:06 (20:06 UTC)


TAF: falta

Observaciones y pronósticos meteorológicos de más de 4000 aeropuertos (mensajes METAR y TAF).

Los puntos amarillos y rojos representan las estaciones disponibles.

Ponga el ratón en el punto deseado para ver el nombre de la estación.

Haga clic para ver las observaciones y los pronósticos meteorológicos.

Para cambiar el mapa : haga clic en los botones verdes con una cruz de color negro para hacer un zoom, en el botón verde con un guión para alejar o en las flechas verdes para mapas adyacentes.


METAR-TAF: